Time;durP1;ratioP1;P1;durP2;ratioP2;P2;SDS_P1;SDS_P2;PMS_P1;PMS_P2;Temp;Humidity;BMP_temperature;BMP_pressure;BME280_temperature;BME280_humidity;BME280_pressure;Samples;Min_cycle;Max_cycle;Signal;HPM_P1;HPM_P2
2022/05/07 00:00:29;;;;;;;11.63;10.43;;;14.70;99.90;;;;;;5090790;28;20016;-78
2022/05/07 00:02:55;;;;;;;12.98;11.68;;;14.60;99.90;;;;;;5092069;28;20020;-78
2022/05/07 00:05:21;;;;;;;14.88;12.43;;;14.60;99.90;;;;;;5090503;28;20039;-77
2022/05/07 00:07:47;;;;;;;14.23;12.73;;;14.60;99.90;;;;;;5090539;28;20032;-78
2022/05/07 00:10:14;;;;;;;14.98;13.02;;;14.50;99.90;;;;;;5090409;28;20028;-78
2022/05/07 00:12:40;;;;;;;14.75;12.70;;;14.50;99.90;;;;;;5093115;28;20016;-78
2022/05/07 00:15:06;;;;;;;15.70;12.07;;;14.50;99.90;;;;;;5096120;28;20060;-77
2022/05/07 00:20:17;;;;;;;13.23;11.85;;;14.50;99.90;;;;;;5096133;28;20092;-79
2022/05/07 00:22:43;;;;;;;16.60;14.68;;;14.50;99.90;;;;;;5096066;28;20024;-78
2022/05/07 00:25:09;;;;;;;17.50;12.88;;;14.50;99.90;;;;;;5095830;28;20035;-78
2022/05/07 00:27:35;;;;;;;14.18;12.70;;;14.50;99.90;;;;;;5094606;28;20031;-78
2022/05/07 00:30:00;;;;;;;12.90;11.40;;;14.50;99.90;;;;;;5095799;28;20032;-77
2022/05/07 00:32:26;;;;;;;13.27;11.88;;;14.50;99.90;;;;;;5094887;28;20145;-78
2022/05/07 00:34:52;;;;;;;14.90;12.63;;;14.50;99.90;;;;;;5094483;28;20119;-78
2022/05/07 00:37:18;;;;;;;15.98;13.77;;;14.50;99.90;;;;;;5095651;28;20585;-78
2022/05/07 00:39:43;;;;;;;15.93;14.15;;;14.50;99.90;;;;;;5095648;28;20027;-78
2022/05/07 00:42:09;;;;;;;15.05;13.38;;;14.50;99.90;;;;;;5094141;28;20122;-78
2022/05/07 00:44:35;;;;;;;16.83;15.13;;;14.40;99.90;;;;;;5094346;28;20016;-78
2022/05/07 00:47:26;;;;;;;18.48;15.55;;;14.40;99.90;;;;;;5095501;28;20459;-78
2022/05/07 00:51:33;;;;;;;16.17;14.48;;;14.50;99.90;;;;;;5095352;28;20032;-78
2022/05/07 00:52:43;;;;;;;20.15;15.63;;;14.50;99.90;;;;;;5094459;28;20073;-78
2022/05/07 00:55:11;;;;;;;17.42;15.48;;;14.50;99.90;;;;;;5093820;28;20020;-78
2022/05/07 00:57:38;;;;;;;19.10;16.02;;;14.50;99.90;;;;;;5094048;28;20478;-78
2022/05/07 01:00:05;;;;;;;18.50;16.33;;;14.50;99.90;;;;;;5095387;28;20584;-78
2022/05/07 01:02:31;;;;;;;18.80;15.68;;;14.40;99.90;;;;;;5093789;28;20051;-78
2022/05/07 01:04:57;;;;;;;19.95;16.17;;;14.40;99.90;;;;;;5093734;28;20124;-78
2022/05/07 01:07:23;;;;;;;19.27;16.92;;;14.40;99.90;;;;;;5094966;28;20533;-80
2022/05/07 01:09:49;;;;;;;19.08;16.48;;;14.30;99.90;;;;;;5093720;28;20177;-78
2022/05/07 01:12:16;;;;;;;21.80;18.98;;;14.20;99.90;;;;;;5095070;28;20031;-78
2022/05/07 01:14:42;;;;;;;21.17;17.33;;;14.20;99.90;;;;;;5094871;28;20024;-78
2022/05/07 01:17:08;;;;;;;20.52;16.88;;;14.20;99.90;;;;;;5094708;28;20122;-78
2022/05/07 01:19:34;;;;;;;19.80;17.52;;;14.20;99.90;;;;;;5093453;28;20107;-77
2022/05/07 01:22:01;;;;;;;18.08;15.00;;;14.20;99.90;;;;;;5093362;28;20136;-77
2022/05/07 01:24:27;;;;;;;18.08;15.02;;;14.20;99.90;;;;;;5094330;28;20107;-77
2022/05/07 01:26:52;;;;;;;18.73;15.63;;;14.00;99.90;;;;;;5094722;28;20106;-78
2022/05/07 01:29:18;;;;;;;17.95;14.90;;;14.00;99.90;;;;;;5094663;28;20053;-77
2022/05/07 01:31:44;;;;;;;18.15;13.10;;;14.00;99.90;;;;;;5094568;28;20494;-78
2022/05/07 01:34:09;;;;;;;14.30;12.80;;;13.90;99.90;;;;;;5094548;28;20046;-78
2022/05/07 01:36:35;;;;;;;17.63;13.27;;;13.90;99.90;;;;;;5094616;28;20024;-77
2022/05/07 01:39:00;;;;;;;16.33;14.50;;;13.90;99.90;;;;;;5094383;28;20035;-78
2022/05/07 01:41:26;;;;;;;17.58;13.95;;;13.90;99.90;;;;;;5094380;28;20038;-75
2022/05/07 01:43:53;;;;;;;15.18;11.73;;;13.80;99.90;;;;;;5094336;28;20464;-75
2022/05/07 01:49:03;;;;;;;15.35;12.75;;;13.60;99.90;;;;;;5094516;28;20031;-73
2022/05/07 01:51:29;;;;;;;16.80;11.13;;;13.50;99.90;;;;;;5093695;28;20048;-74
2022/05/07 01:53:55;;;;;;;15.85;9.63;;;13.40;99.90;;;;;;5094104;28;20043;-75
2022/05/07 01:56:21;;;;;;;17.02;12.25;;;13.40;99.90;;;;;;5094050;28;20024;-74
2022/05/07 01:58:48;;;;;;;24.20;15.43;;;13.30;99.90;;;;;;5094005;28;20035;-74
2022/05/07 02:01:14;;;;;;;24.75;15.90;;;13.20;99.90;;;;;;5094083;28;20023;-75
2022/05/07 02:03:40;;;;;;;22.83;17.52;;;13.10;99.90;;;;;;5094012;28;20020;-74
2022/05/07 02:06:06;;;;;;;22.83;16.98;;;13.20;99.90;;;;;;5092499;28;20482;-74
2022/05/07 02:08:31;;;;;;;27.45;17.63;;;13.10;99.90;;;;;;5093871;28;20092;-74
2022/05/07 02:11:00;;;;;;;20.83;17.50;;;13.20;99.90;;;;;;5093687;28;20036;-74
2022/05/07 02:13:26;;;;;;;19.85;16.27;;;13.20;99.90;;;;;;5093697;28;20103;-74
2022/05/07 02:15:52;;;;;;;19.45;15.43;;;13.10;99.90;;;;;;5093632;28;20024;-74
2022/05/07 02:18:18;;;;;;;19.20;17.13;;;13.10;99.90;;;;;;5093429;28;20024;-74
2022/05/07 02:20:43;;;;;;;19.63;16.48;;;13.10;99.90;;;;;;5093508;28;20364;-73
2022/05/07 02:23:09;;;;;;;19.55;17.20;;;13.20;99.90;;;;;;5093552;28;20482;-74
2022/05/07 02:25:34;;;;;;;20.88;18.20;;;13.10;99.90;;;;;;5093448;28;20020;-74
2022/05/07 02:28:00;;;;;;;21.95;17.98;;;13.10;99.90;;;;;;5091918;28;20015;-74
2022/05/07 02:30:26;;;;;;;22.63;18.27;;;13.20;99.90;;;;;;5093373;28;20042;-74
2022/05/07 02:32:51;;;;;;;22.48;18.70;;;13.10;99.90;;;;;;5093446;28;20475;-74
2022/05/07 02:35:17;;;;;;;23.45;19.25;;;13.10;99.90;;;;;;5091202;28;20379;-74
2022/05/07 02:37:43;;;;;;;22.77;18.83;;;13.10;99.90;;;;;;5091767;28;20045;-74
2022/05/07 02:40:09;;;;;;;26.73;19.48;;;13.10;99.90;;;;;;5091877;28;20031;-74
2022/05/07 02:42:38;;;;;;;23.60;19.23;;;13.10;99.90;;;;;;5092082;28;20035;-74
2022/05/07 02:45:06;;;;;;;23.65;19.75;;;13.10;99.90;;;;;;5093227;28;20012;-74
2022/05/07 02:47:33;;;;;;;21.42;18.75;;;13.10;99.90;;;;;;5091499;28;20020;-74
2022/05/07 02:49:59;;;;;;;25.02;20.38;;;13.10;99.90;;;;;;5092898;28;20082;-74
2022/05/07 02:52:24;;;;;;;23.60;19.48;;;13.10;99.90;;;;;;5092909;28;20666;-74
2022/05/07 02:54:50;;;;;;;25.50;20.50;;;13.10;99.90;;;;;;5092994;28;20119;-75
2022/05/07 02:57:16;;;;;;;23.70;20.23;;;13.00;99.90;;;;;;5092919;28;20129;-74
2022/05/07 02:59:41;;;;;;;25.08;19.65;;;13.00;99.90;;;;;;5092756;28;20026;-74
2022/05/07 03:02:07;;;;;;;24.58;20.73;;;13.00;99.90;;;;;;5092821;28;20096;-74
2022/05/07 03:04:34;;;;;;;24.48;20.80;;;13.00;99.90;;;;;;5092650;28;20521;-74
2022/05/07 03:07:00;;;;;;;22.55;19.75;;;13.00;99.90;;;;;;5092735;28;20017;-74
2022/05/07 03:09:25;;;;;;;25.88;20.08;;;13.00;99.90;;;;;;5092832;28;20453;-74
2022/05/07 03:11:51;;;;;;;24.55;20.33;;;13.00;99.90;;;;;;5091230;28;20128;-74
2022/05/07 03:14:17;;;;;;;24.73;21.02;;;13.00;99.90;;;;;;5092752;28;20073;-75
2022/05/07 03:16:42;;;;;;;24.85;20.30;;;13.00;99.90;;;;;;5091095;28;20062;-75
2022/05/07 03:19:08;;;;;;;22.95;19.92;;;13.00;99.90;;;;;;5092637;28;20106;-75
2022/05/07 03:21:34;;;;;;;23.33;19.38;;;13.00;99.90;;;;;;5092596;28;20091;-74
2022/05/07 03:24:01;;;;;;;26.33;20.38;;;13.00;99.90;;;;;;5091255;28;20020;-74
2022/05/07 03:26:26;;;;;;;23.30;19.80;;;13.00;99.90;;;;;;5092349;28;20506;-74
2022/05/07 03:28:52;;;;;;;21.55;19.25;;;13.00;99.90;;;;;;5092399;28;20027;-74
2022/05/07 03:31:19;;;;;;;23.20;19.38;;;13.00;99.90;;;;;;5092225;28;20028;-74
2022/05/07 03:33:46;;;;;;;27.00;20.52;;;13.00;99.90;;;;;;5092434;28;20019;-74
2022/05/07 03:36:13;;;;;;;22.75;19.25;;;12.90;99.90;;;;;;5090847;28;20164;-74
2022/05/07 03:38:39;;;;;;;23.17;18.23;;;12.90;99.90;;;;;;5092422;28;20026;-74
2022/05/07 03:41:04;;;;;;;25.63;20.40;;;12.90;99.90;;;;;;5092361;28;20032;-74
2022/05/07 03:43:33;;;;;;;25.00;21.08;;;12.90;99.90;;;;;;5090993;28;20020;-75
2022/05/07 03:45:58;;;;;;;25.02;20.15;;;12.90;99.90;;;;;;5091922;28;20524;-75
2022/05/07 03:48:26;;;;;;;22.63;19.70;;;12.90;99.90;;;;;;5092195;28;20017;-74
2022/05/07 03:50:52;;;;;;;23.55;19.30;;;12.90;99.90;;;;;;5091938;28;20140;-75
2022/05/07 03:53:30;;;;;;;23.50;19.27;;;13.00;99.90;;;;;;5092074;28;20478;-75
2022/05/07 03:56:07;;;;;;;23.08;19.80;;;12.90;99.90;;;;;;5092316;28;20066;-75
2022/05/07 03:58:34;;;;;;;21.42;19.13;;;12.90;99.90;;;;;;5092324;28;20020;-75
2022/05/07 04:01:00;;;;;;;20.08;17.55;;;12.90;99.90;;;;;;5092190;28;20126;-75
2022/05/07 04:03:28;;;;;;;24.05;19.27;;;12.90;99.90;;;;;;5091994;28;20016;-75
2022/05/07 04:05:54;;;;;;;21.13;17.83;;;12.90;99.90;;;;;;5091849;28;20024;-75
2022/05/07 04:08:20;;;;;;;22.63;19.27;;;12.90;99.90;;;;;;5090713;28;20035;-75
2022/05/07 04:10:47;;;;;;;23.00;20.40;;;12.90;99.90;;;;;;5091909;28;20028;-75
2022/05/07 04:13:13;;;;;;;21.92;18.25;;;12.90;99.90;;;;;;5092242;28;20020;-75
2022/05/07 04:15:39;;;;;;;22.33;18.40;;;12.90;99.90;;;;;;5091807;28;20055;-75
2022/05/07 04:18:07;;;;;;;22.42;17.88;;;12.90;99.90;;;;;;5091821;28;20085;-75
2022/05/07 04:20:33;;;;;;;21.60;18.10;;;13.00;99.90;;;;;;5091893;28;20028;-75
2022/05/07 04:22:59;;;;;;;19.08;16.88;;;13.00;99.90;;;;;;5091638;28;20021;-75
2022/05/07 04:25:25;;;;;;;14.57;13.07;;;13.00;99.90;;;;;;5091907;28;20024;-76
2022/05/07 04:27:51;;;;;;;14.55;13.05;;;12.90;99.90;;;;;;5091883;28;20016;-75
2022/05/07 04:30:17;;;;;;;13.27;11.88;;;12.90;99.90;;;;;;5091659;28;20141;-75
2022/05/07 04:32:42;;;;;;;17.02;11.65;;;12.90;99.90;;;;;;5091883;28;20036;-75
2022/05/07 04:35:08;;;;;;;12.75;11.00;;;12.90;99.90;;;;;;5091906;28;20035;-75
2022/05/07 04:37:34;;;;;;;12.57;10.85;;;12.90;99.90;;;;;;5090370;28;20111;-75
2022/05/07 04:40:00;;;;;;;13.35;11.88;;;12.90;99.90;;;;;;5090814;28;20112;-75
2022/05/07 04:42:25;;;;;;;11.50;10.23;;;12.90;99.90;;;;;;5090073;28;20035;-75
2022/05/07 04:44:51;;;;;;;9.52;8.52;;;12.90;99.90;;;;;;5089981;28;20028;-79
2022/05/07 04:47:16;;;;;;;11.70;10.13;;;12.90;99.90;;;;;;5092912;28;20017;-75
2022/05/07 04:49:42;;;;;;;12.88;9.95;;;13.30;99.90;;;;;;5091879;28;20027;-75
2022/05/07 04:52:08;;;;;;;10.32;9.10;;;13.50;99.90;;;;;;5092262;28;20407;-76
2022/05/07 04:54:34;;;;;;;10.40;9.40;;;13.70;99.90;;;;;;5093845;28;20020;-80
2022/05/07 04:57:00;;;;;;;9.35;8.30;;;13.70;99.90;;;;;;5091325;28;20074;-76
2022/05/07 04:59:26;;;;;;;9.43;8.52;;;13.70;99.90;;;;;;5094762;28;20430;-77
2022/05/07 05:01:51;;;;;;;8.63;7.75;;;13.80;99.90;;;;;;5093968;28;20024;-77
2022/05/07 05:04:17;;;;;;;7.93;7.15;;;13.90;99.90;;;;;;5094869;28;20066;-77
2022/05/07 05:06:43;;;;;;;8.57;7.70;;;14.00;99.90;;;;;;5094832;28;20391;-78
2022/05/07 05:09:10;;;;;;;7.53;6.45;;;14.00;99.90;;;;;;5094673;28;20016;-77
2022/05/07 05:11:37;;;;;;;7.85;7.05;;;13.90;99.90;;;;;;5094680;28;20032;-78
2022/05/07 05:16:47;;;;;;;7.75;6.90;;;13.80;99.90;;;;;;5094712;28;20024;-78
2022/05/07 05:19:13;;;;;;;7.32;6.63;;;13.80;99.90;;;;;;5093520;28;20459;-78
2022/05/07 05:21:39;;;;;;;7.30;6.47;;;13.70;99.90;;;;;;5094411;28;20023;-77
2022/05/07 05:24:04;;;;;;;7.72;7.03;;;13.60;99.90;;;;;;5093194;28;20418;-77
2022/05/07 05:26:30;;;;;;;8.27;7.40;;;13.60;99.90;;;;;;5094609;28;20028;-77
2022/05/07 05:28:59;;;;;;;6.97;6.38;;;13.60;99.90;;;;;;5094745;28;20414;-77
2022/05/07 05:31:25;;;;;;;6.93;6.22;;;13.60;99.90;;;;;;5094711;28;20028;-77
2022/05/07 05:33:50;;;;;;;7.80;7.10;;;13.60;99.90;;;;;;5094293;28;20031;-77
2022/05/07 05:36:16;;;;;;;8.38;7.30;;;13.70;99.90;;;;;;5094084;28;20024;-77
2022/05/07 05:38:42;;;;;;;8.02;7.22;;;13.80;99.90;;;;;;5093674;28;20038;-78
2022/05/07 05:41:07;;;;;;;9.55;8.32;;;13.70;99.90;;;;;;5093913;28;20694;-77
2022/05/07 05:43:33;;;;;;;9.45;8.55;;;13.70;99.90;;;;;;5094257;28;20574;-77
2022/05/07 05:45:59;;;;;;;9.80;8.90;;;13.80;99.90;;;;;;5094398;28;20085;-78
2022/05/07 05:48:28;;;;;;;9.25;8.35;;;14.00;99.90;;;;;;5094406;28;20024;-77
2022/05/07 05:50:57;;;;;;;12.73;8.45;;;14.10;99.90;;;;;;5093004;28;20499;-78
2022/05/07 05:53:22;;;;;;;7.70;7.00;;;14.40;99.90;;;;;;5093577;28;20020;-77
2022/05/07 05:55:48;;;;;;;9.45;7.90;;;14.40;99.90;;;;;;5093526;28;20046;-78
2022/05/07 05:58:14;;;;;;;11.45;7.75;;;14.40;99.90;;;;;;5092994;28;20028;-78
2022/05/07 06:00:40;;;;;;;9.13;8.05;;;14.40;99.90;;;;;;5093623;28;20028;-77
2022/05/07 06:03:06;;;;;;;9.23;8.32;;;14.40;99.90;;;;;;5092778;28;20031;-78
2022/05/07 06:05:31;;;;;;;10.27;8.35;;;14.30;99.90;;;;;;5093999;28;20471;-78
2022/05/07 06:07:57;;;;;;;8.43;7.45;;;14.40;99.90;;;;;;5092987;28;20038;-77
2022/05/07 06:10:23;;;;;;;8.70;7.72;;;14.60;99.90;;;;;;5092765;28;20027;-78
2022/05/07 06:12:49;;;;;;;9.38;8.40;;;14.50;99.90;;;;;;5094016;28;20032;-78
2022/05/07 06:15:15;;;;;;;9.55;7.50;;;14.60;99.90;;;;;;5092843;28;20111;-79
2022/05/07 06:17:40;;;;;;;9.55;7.97;;;14.70;99.90;;;;;;5069829;28;20175;-78
2022/05/07 06:20:07;;;;;;;9.93;8.82;;;14.60;99.90;;;;;;5052302;28;20025;-78
2022/05/07 06:22:32;;;;;;;9.25;7.72;;;14.50;99.90;;;;;;5052447;28;20029;-78
2022/05/07 06:27:42;;;;;;;9.35;8.45;;;14.50;99.90;;;;;;5053436;28;20495;-78
2022/05/07 06:30:08;;;;;;;10.30;9.20;;;14.80;99.90;;;;;;5053315;28;20029;-78
2022/05/07 06:32:35;;;;;;;9.93;8.55;;;14.70;99.90;;;;;;5051920;28;20234;-78
2022/05/07 06:35:05;;;;;;;8.82;8.02;;;14.80;99.90;;;;;;5053257;28;20082;-79
2022/05/07 06:37:32;;;;;;;10.32;9.32;;;14.90;99.90;;;;;;5053054;28;20029;-80
2022/05/07 06:39:57;;;;;;;8.18;7.43;;;15.00;99.90;;;;;;5051810;28;20191;-78
2022/05/07 06:42:23;;;;;;;52.25;30.42;;;15.20;99.90;;;;;;5052970;28;20508;-78
2022/05/07 06:44:49;;;;;;;32.83;20.48;;;15.40;99.90;;;;;;5053265;28;20345;-76
2022/05/07 06:47:16;;;;;;;23.33;14.63;;;15.40;99.90;;;;;;5052960;28;20021;-75
2022/05/07 06:49:43;;;;;;;14.93;11.48;;;15.40;99.90;;;;;;5052979;28;20036;-76
2022/05/07 06:52:08;;;;;;;7.88;7.18;;;15.30;99.90;;;;;;5052895;28;20358;-77
2022/05/07 06:54:34;;;;;;;8.10;6.93;;;15.10;99.90;;;;;;5052976;28;20083;-77
2022/05/07 06:57:00;;;;;;;7.90;7.07;;;14.90;99.90;;;;;;5053084;28;20040;-79
2022/05/07 06:59:26;;;;;;;8.15;7.45;;;14.80;99.90;;;;;;5052772;28;20052;-79
2022/05/07 07:01:54;;;;;;;8.52;7.63;;;14.80;99.90;;;;;;5071637;28;20451;-76
2022/05/07 07:04:20;;;;;;;9.15;8.25;;;14.60;99.90;;;;;;5071352;28;20021;-76
2022/05/07 07:06:46;;;;;;;9.00;8.18;;;14.50;99.90;;;;;;5072094;28;20387;-78
2022/05/07 07:09:11;;;;;;;9.38;8.48;;;14.50;99.90;;;;;;5072508;28;20028;-76
2022/05/07 07:11:37;;;;;;;10.07;8.00;;;14.50;99.90;;;;;;5072479;28;20074;-75
2022/05/07 07:14:03;;;;;;;8.45;7.65;;;14.40;99.90;;;;;;5071202;28;20032;-82
2022/05/07 07:16:29;;;;;;;9.23;8.27;;;14.40;99.90;;;;;;5072608;28;20020;-80
2022/05/07 07:18:55;;;;;;;12.55;8.48;;;14.40;99.90;;;;;;5070989;28;20137;-80
2022/05/07 07:21:21;;;;;;;8.32;7.45;;;14.50;99.90;;;;;;5071751;28;20371;-82
2022/05/07 07:23:47;;;;;;;11.80;8.80;;;14.50;99.90;;;;;;5071320;28;20016;-79
2022/05/07 07:26:13;;;;;;;9.18;8.18;;;14.60;99.90;;;;;;5072518;28;20063;-81
2022/05/07 07:28:39;;;;;;;11.13;8.00;;;14.60;99.90;;;;;;5072588;28;20024;-81
2022/05/07 07:31:05;;;;;;;8.98;8.07;;;14.50;99.90;;;;;;5071056;28;20032;-81
2022/05/07 07:33:31;;;;;;;9.75;8.75;;;14.40;99.90;;;;;;5071280;28;20493;-80
2022/05/07 07:35:56;;;;;;;9.32;8.43;;;14.30;99.90;;;;;;5071190;28;20022;-81
2022/05/07 07:38:22;;;;;;;9.50;8.60;;;14.30;99.90;;;;;;5072485;28;20050;-81
2022/05/07 07:40:51;;;;;;;9.43;8.43;;;14.50;99.90;;;;;;5072357;28;20078;-82
2022/05/07 07:43:18;;;;;;;8.88;7.97;;;14.50;99.90;;;;;;5071340;28;20024;-81
2022/05/07 07:48:29;;;;;;;9.95;8.98;;;14.50;99.90;;;;;;5091994;28;20512;-79
2022/05/07 07:50:55;;;;;;;9.23;8.32;;;14.40;99.90;;;;;;5090834;28;20190;-78
2022/05/07 07:53:22;;;;;;;10.30;9.00;;;14.50;99.90;;;;;;5092123;28;20511;-77
2022/05/07 07:55:48;;;;;;;9.88;8.88;;;14.40;99.90;;;;;;5091891;28;20051;-76
2022/05/07 07:58:13;;;;;;;11.02;9.82;;;14.50;99.90;;;;;;5091778;28;20052;-78
2022/05/07 08:00:41;;;;;;;12.95;10.43;;;14.40;99.90;;;;;;5091810;28;20463;-77
2022/05/07 08:03:15;;;;;;;11.10;10.00;;;14.40;99.90;;;;;;5092144;28;20023;-81
2022/05/07 08:05:42;;;;;;;11.88;10.57;;;14.40;99.90;;;;;;5091210;28;20039;-77
2022/05/07 08:13:41;;;;;;;9.75;8.77;;;14.50;99.90;;;;;;5092946;28;20537;-79
2022/05/07 08:16:08;;;;;;;12.77;11.48;;;14.50;99.90;;;;;;5091888;28;20028;-78
2022/05/07 08:18:35;;;;;;;14.75;13.32;;;14.60;99.90;;;;;;5092040;28;20348;-78
2022/05/07 08:21:01;;;;;;;11.13;10.02;;;14.60;99.90;;;;;;5090621;28;20069;-78
2022/05/07 08:23:27;;;;;;;11.60;10.40;;;14.60;99.90;;;;;;5090649;28;20063;-78
2022/05/07 08:25:53;;;;;;;12.73;11.43;;;14.80;99.90;;;;;;5091626;28;20028;-77
2022/05/07 08:28:19;;;;;;;9.98;9.07;;;14.80;99.90;;;;;;5091479;28;20493;-77
2022/05/07 08:30:46;;;;;;;14.18;12.45;;;14.90;99.90;;;;;;5091500;28;20032;-79
2022/05/07 08:33:11;;;;;;;12.32;10.68;;;14.90;99.90;;;;;;5094120;28;20032;-78
2022/05/07 08:35:38;;;;;;;12.00;10.80;;;15.00;99.90;;;;;;5095580;28;20514;-77
2022/05/07 08:38:03;;;;;;;10.82;9.60;;;15.10;99.90;;;;;;5095298;28;20439;-79
2022/05/07 08:40:29;;;;;;;13.35;10.05;;;15.10;99.90;;;;;;5094044;28;20058;-78
2022/05/07 08:42:56;;;;;;;12.00;10.82;;;15.20;99.90;;;;;;5095494;28;20066;-79
2022/05/07 08:45:22;;;;;;;9.85;8.95;;;15.20;99.90;;;;;;5095101;28;20425;-78
2022/05/07 08:47:52;;;;;;;10.25;9.15;;;15.30;99.90;;;;;;5094046;28;20032;-80
2022/05/07 08:50:19;;;;;;;10.60;9.50;;;15.30;99.90;;;;;;5093936;28;20040;-79
2022/05/07 08:52:45;;;;;;;10.48;9.20;;;15.30;99.90;;;;;;5094078;28;20111;-80
2022/05/07 08:55:14;;;;;;;11.32;9.60;;;15.30;99.90;;;;;;5095657;28;20328;-79
2022/05/07 08:57:42;;;;;;;10.65;9.10;;;15.20;99.90;;;;;;5095232;28;20020;-76
2022/05/07 09:00:08;;;;;;;11.50;10.40;;;15.20;99.90;;;;;;5095460;28;20016;-76
2022/05/07 09:02:45;;;;;;;11.32;10.18;;;15.10;99.90;;;;;;5072699;28;20021;-75
2022/05/07 09:05:13;;;;;;;15.25;10.70;;;15.10;99.90;;;;;;5055285;28;20031;-79
2022/05/07 09:07:50;;;;;;;10.68;9.55;;;15.10;99.90;;;;;;5053717;28;20382;-78
2022/05/07 09:10:16;;;;;;;15.00;12.68;;;15.20;99.90;;;;;;5055066;28;20021;-78
2022/05/07 09:12:41;;;;;;;16.75;12.85;;;15.30;99.90;;;;;;5054933;28;20025;-78
2022/05/07 09:15:08;;;;;;;19.95;15.73;;;15.40;99.90;;;;;;5053418;28;20025;-78
2022/05/07 09:17:34;;;;;;;15.63;11.88;;;15.40;99.90;;;;;;5054156;28;20029;-79
2022/05/07 09:20:14;;;;;;;15.07;12.18;;;15.40;99.90;;;;;;5053449;28;20526;-79
2022/05/07 09:22:55;;;;;;;11.07;9.95;;;15.40;99.90;;;;;;5053249;28;20033;-79
2022/05/07 09:25:30;;;;;;;10.50;9.02;;;15.40;99.90;;;;;;5054181;28;20033;-79
2022/05/07 09:27:59;;;;;;;10.98;9.88;;;15.30;99.90;;;;;;5054526;28;20052;-79
2022/05/07 09:30:28;;;;;;;9.65;8.65;;;15.40;99.90;;;;;;5054400;28;20091;-81
2022/05/07 09:32:56;;;;;;;15.48;10.73;;;15.60;99.90;;;;;;5053093;28;20091;-77
2022/05/07 09:35:47;;;;;;;10.88;9.77;;;15.80;99.90;;;;;;5054402;28;20018;-78
2022/05/07 09:38:14;;;;;;;11.10;8.95;;;16.00;99.90;;;;;;5052777;28;20029;-78
2022/05/07 09:40:44;;;;;;;10.15;9.02;;;16.10;99.90;;;;;;5052906;28;20094;-80
2022/05/07 09:43:11;;;;;;;9.63;8.73;;;16.00;99.90;;;;;;5053812;28;20025;-79
2022/05/07 09:45:39;;;;;;;9.43;7.85;;;16.00;99.90;;;;;;5054044;28;20029;-80
2022/05/07 09:48:06;;;;;;;9.50;8.57;;;15.90;99.90;;;;;;5052638;28;20044;-80
2022/05/07 09:58:37;;;;;;;;;;;15.20;99.90;;;;;;5094779;28;20375;-81
2022/05/07 10:01:21;;;;;;;10.10;9.10;;;15.30;99.90;;;;;;5092731;28;19904;-81
2022/05/07 10:04:24;;;;;;;10.80;9.60;;;15.30;99.90;;;;;;5092910;28;20039;-75
2022/05/07 10:06:53;;;;;;;10.75;9.57;;;15.30;99.90;;;;;;5093706;28;20459;-75
2022/05/07 10:09:28;;;;;;;11.05;9.85;;;15.40;99.90;;;;;;5093951;28;20044;-75
2022/05/07 10:11:56;;;;;;;10.53;9.30;;;15.50;99.90;;;;;;5093570;28;20039;-75
2022/05/07 10:14:26;;;;;;;11.63;9.45;;;15.60;99.90;;;;;;5093884;28;20021;-74
2022/05/07 10:17:09;;;;;;;10.90;9.43;;;15.60;99.90;;;;;;5093651;28;20020;-75
2022/05/07 10:19:42;;;;;;;9.48;8.57;;;15.60;99.90;;;;;;5093735;28;20048;-76
2022/05/07 10:22:34;;;;;;;9.23;8.32;;;15.70;99.90;;;;;;5093588;28;20115;-75
2022/05/07 10:25:11;;;;;;;9.98;8.98;;;15.70;99.90;;;;;;5090889;28;20075;-75
2022/05/07 10:27:42;;;;;;;11.45;8.98;;;15.80;99.90;;;;;;5092763;28;20024;-74
2022/05/07 10:30:15;;;;;;;9.73;8.02;;;15.90;99.90;;;;;;5093519;28;20873;-78
2022/05/07 10:33:07;;;;;;;9.07;8.18;;;16.60;99.90;;;;;;5093554;28;20043;-75
2022/05/07 10:35:43;;;;;;;8.35;7.55;;;15.90;99.90;;;;;;5090693;28;20097;-78
2022/05/07 10:38:29;;;;;;;9.77;7.60;;;15.90;99.90;;;;;;5093469;28;20031;-77
2022/05/07 10:41:17;;;;;;;8.00;7.22;;;16.00;99.90;;;;;;5093223;28;20093;-77
2022/05/07 10:43:54;;;;;;;9.02;7.95;;;16.00;99.90;;;;;;5092300;28;20066;-77
2022/05/07 10:46:22;;;;;;;10.27;8.00;;;16.10;99.90;;;;;;5092062;28;20085;-76
2022/05/07 10:49:05;;;;;;;9.23;8.02;;;16.10;99.90;;;;;;5092099;28;20458;-76
2022/05/07 10:51:32;;;;;;;9.73;7.68;;;16.20;99.90;;;;;;5092961;28;20083;-77
2022/05/07 10:54:00;;;;;;;9.43;8.50;;;16.30;99.90;;;;;;5093135;28;20020;-77
2022/05/07 10:56:27;;;;;;;8.85;7.50;;;16.40;99.90;;;;;;5092221;28;20058;-80
2022/05/07 10:58:57;;;;;;;9.02;7.85;;;16.40;99.90;;;;;;5091593;28;20024;-79
2022/05/07 11:01:25;;;;;;;9.88;8.65;;;16.50;99.90;;;;;;5092638;28;20020;-77
2022/05/07 11:04:03;;;;;;;8.55;7.07;;;16.60;99.90;;;;;;5091108;28;20028;-79
2022/05/07 11:06:28;;;;;;;9.90;8.57;;;16.70;99.90;;;;;;5092639;28;20019;-78
2022/05/07 11:08:54;;;;;;;8.10;7.38;;;16.70;99.90;;;;;;5092534;28;20144;-82
2022/05/07 11:11:20;;;;;;;9.07;8.18;;;16.70;99.90;;;;;;5092671;28;20078;-79
2022/05/07 11:13:46;;;;;;;10.18;9.27;;;16.80;99.90;;;;;;5092699;28;20052;-77
2022/05/07 11:16:11;;;;;;;9.80;8.60;;;16.90;99.90;;;;;;5092772;28;20052;-77
2022/05/07 11:18:40;;;;;;;9.93;8.90;;;17.00;99.90;;;;;;5091661;28;20020;-80
2022/05/07 11:21:06;;;;;;;10.00;9.10;;;17.00;99.90;;;;;;5093202;28;20019;-77
2022/05/07 11:23:36;;;;;;;9.15;8.35;;;17.10;99.90;;;;;;5093434;28;20016;-76
2022/05/07 11:26:13;;;;;;;8.90;7.90;;;17.10;99.90;;;;;;5092932;28;20028;-76
2022/05/07 11:28:40;;;;;;;9.80;8.80;;;16.90;99.90;;;;;;5092329;28;20550;-76
2022/05/07 11:31:06;;;;;;;9.32;8.50;;;16.60;99.90;;;;;;5093002;28;20437;-76
2022/05/07 11:33:32;;;;;;;9.82;8.93;;;16.70;99.90;;;;;;5092086;28;20028;-76
2022/05/07 11:36:06;;;;;;;9.98;9.07;;;16.70;99.90;;;;;;5091129;28;20340;-76
2022/05/07 11:38:34;;;;;;;12.48;9.75;;;16.60;99.90;;;;;;5092306;28;20028;-76
2022/05/07 11:41:14;;;;;;;10.73;9.73;;;16.70;99.90;;;;;;5092183;28;20016;-77
2022/05/07 11:46:25;;;;;;;11.30;10.20;;;16.30;99.90;;;;;;5092216;28;20093;-77
2022/05/07 11:48:51;;;;;;;9.65;8.73;;;16.20;99.90;;;;;;5091671;28;20024;-76
2022/05/07 11:51:25;;;;;;;12.43;10.48;;;16.00;99.90;;;;;;5091542;28;20095;-77
2022/05/07 11:53:51;;;;;;;14.60;10.25;;;16.00;99.90;;;;;;5092210;28;20221;-76
2022/05/07 11:56:18;;;;;;;11.23;10.02;;;15.90;99.90;;;;;;5091539;28;20483;-75
2022/05/07 11:58:46;;;;;;;12.63;9.95;;;15.90;99.90;;;;;;5092647;28;20020;-81
2022/05/07 12:01:30;;;;;;;12.55;11.35;;;15.90;99.90;;;;;;5091017;28;20024;-75
2022/05/07 12:04:07;;;;;;;13.13;11.23;;;15.90;99.90;;;;;;5092736;28;20379;-77
2022/05/07 12:06:33;;;;;;;13.60;12.02;;;15.90;99.90;;;;;;5092836;28;20035;-80
2022/05/07 12:09:09;;;;;;;14.25;12.38;;;15.90;99.90;;;;;;5095033;28;20471;-79
2022/05/07 12:11:34;;;;;;;16.48;13.13;;;16.00;99.90;;;;;;5081180;28;20024;-77
2022/05/07 12:14:00;;;;;;;14.32;12.90;;;16.10;99.90;;;;;;5096529;28;20012;-79
2022/05/07 12:19:10;;;;;;;14.70;13.20;;;16.30;99.90;;;;;;5098445;28;20027;-75
2022/05/07 12:29:51;;;;;;;15.55;13.85;;;16.30;99.90;;;;;;5096274;28;20047;-75
2022/05/07 12:32:23;;;;;;;16.38;14.23;;;16.30;99.90;;;;;;5095947;28;20040;-83
2022/05/07 12:34:49;;;;;;;16.35;14.32;;;16.20;99.90;;;;;;5096169;28;20054;-74
2022/05/07 12:37:15;;;;;;;16.15;13.80;;;16.20;99.90;;;;;;5095922;28;20028;-76
2022/05/07 12:39:41;;;;;;;20.27;15.55;;;16.10;99.90;;;;;;5096428;28;20036;-74
2022/05/07 12:42:09;;;;;;;16.75;15.02;;;16.00;99.90;;;;;;5095419;28;20072;-75
2022/05/07 12:44:34;;;;;;;17.15;15.35;;;15.90;99.90;;;;;;5095599;28;20027;-76
2022/05/07 12:47:01;;;;;;;18.05;16.30;;;15.90;99.90;;;;;;5096148;28;20032;-74
2022/05/07 12:49:27;;;;;;;18.50;16.60;;;16.00;99.90;;;;;;5096235;28;20472;-74
2022/05/07 12:51:53;;;;;;;32.50;24.55;;;15.90;99.90;;;;;;5094875;28;20060;-80
2022/05/07 12:54:19;;;;;;;19.67;16.63;;;16.00;99.90;;;;;;5094087;28;20024;-75
2022/05/07 12:56:46;;;;;;;18.40;16.50;;;16.00;99.90;;;;;;5095422;28;20024;-86
2022/05/07 12:59:12;;;;;;;17.83;15.88;;;16.00;99.90;;;;;;5095133;28;20031;-75
2022/05/07 13:01:38;;;;;;;18.25;16.35;;;16.00;99.90;;;;;;5095694;28;20028;-74
2022/05/07 13:04:04;;;;;;;22.20;17.35;;;16.00;99.90;;;;;;5094404;28;20024;-75
2022/05/07 13:06:30;;;;;;;19.08;17.13;;;16.00;99.90;;;;;;5095555;28;20030;-90
2022/05/07 13:08:58;;;;;;;19.50;17.50;;;16.10;99.90;;;;;;5095634;28;20103;-89
2022/05/07 13:11:24;;;;;;;18.27;16.48;;;16.10;99.90;;;;;;5095915;28;20040;-84
2022/05/07 13:13:51;;;;;;;17.77;15.98;;;16.00;99.90;;;;;;5095345;28;20082;-75
2022/05/07 13:16:17;;;;;;;21.17;16.60;;;16.00;99.90;;;;;;5093971;28;20028;-75
2022/05/07 13:18:44;;;;;;;22.42;16.05;;;15.90;99.90;;;;;;5094386;28;20032;-74